Rochester, NY

6:45 AM EST on March 02, 2015 (GMT -0500)
Dewey/Ridgeway Area | Change Station
CLOSE
Current Station
Personal Weather Station
Location: Rochester, NY
Elevation: 482 ft
Nearby Weather Stations

Elev 482 ft 43.19 °N, 77.65 °W | Updated 42 seconds ago

Overcast
Overcast
22.5 °F
Feels Like 15 °F
N
6.0
Wind Variable Wind from WNW
Gusts 12.0 mph

Today
High -- | Low -- °F
--% Chance of Precip.
Yesterday
High -- | Low -- °F
Precip. -- in
6:45 AM 6:00 PM
Waxing Gibbous, 91% visible
Pressure 30.17 in
Visibility 2.5 miles
Clouds Overcast 3100 ft
Windchill 15 °F
Dew Point 20 °F
Humidity 89%
Rainfall 0.00 in
Snow Depth Not available.
UV 0 out of 12
Pollen .50 out of 12
Air Quality Not available.
Flu Activity Not available.
METAR KROC 021054Z 26010KT 2 1/2SM -SN OVC031 M06/M08 A3013 RMK AO2 SLP214 P0000 T10561083

More Conditions Fewer Conditions

Pressure 30.17 in
Visibility 2.5 miles
Clouds Overcast 3100 ft
Windchill 15 °F
Dew Point 20 °F
Humidity 89%
Rainfall 0.00 in
Snow Depth Not available.
UV 0 out of 12
Pollen .50 out of 12
Air Quality Not available.
Flu Activity Not available.
METAR KROC 021054Z 26010KT 2 1/2SM -SN OVC031 M06/M08 A3013 RMK AO2 SLP214 P0000 T10561083

More Conditions Fewer Conditions

10-Day Weather Forecast

Almanac

Astronomy

Mar. 02, 2015 Rise Set
Actual Time
Civil Twilight
Nautical Twilight
Astronomical Twilight
Moon
Length of Visible Light
Length of Day
Tomorrow will be .
, % of the Moon is Illuminated

Today's Extremes

State Highs State Lows

Community

WunderPhotos

Upload Photos

1,801,757 photos uploaded!

WunderBlogs® & News

Nearby

Air Quality

  Air Quality AQ Index Pollutant
Not available.

Snow Depth

Station Depth Elevation

Earthquake Activity

City Distance Mag. Time & Date
Minimum magnitude displayed is 2.5.

Coastal Water Temperatures

Place Temperature

Nearby Weather Stations